sensor_id;sensor_type;location;lat;lon;timestamp;P1;durP1;ratioP1;P2;durP2;ratioP2
10667;SDS011;5382;42.136;24.796;2023-05-01T00:00:23;5.43;;;4.65;;
10667;SDS011;5382;42.136;24.796;2023-05-01T00:02:50;5.97;;;5.38;;
10667;SDS011;5382;42.136;24.796;2023-05-01T00:05:18;5.68;;;5.15;;
10667;SDS011;5382;42.136;24.796;2023-05-01T00:07:45;6.95;;;4.63;;
10667;SDS011;5382;42.136;24.796;2023-05-01T00:10:13;4.97;;;4.03;;
10667;SDS011;5382;42.136;24.796;2023-05-01T00:12:39;5.35;;;4.85;;
10667;SDS011;5382;42.136;24.796;2023-05-01T00:15:07;4.80;;;4.40;;
10667;SDS011;5382;42.136;24.796;2023-05-01T00:17:34;4.97;;;4.40;;
10667;SDS011;5382;42.136;24.796;2023-05-01T00:20:02;6.93;;;4.85;;
10667;SDS011;5382;42.136;24.796;2023-05-01T00:22:30;7.63;;;4.75;;
10667;SDS011;5382;42.136;24.796;2023-05-01T00:24:57;4.85;;;4.28;;
10667;SDS011;5382;42.136;24.796;2023-05-01T00:27:25;4.55;;;4.07;;
10667;SDS011;5382;42.136;24.796;2023-05-01T00:29:51;5.03;;;4.50;;
10667;SDS011;5382;42.136;24.796;2023-05-01T00:32:18;4.90;;;4.38;;
10667;SDS011;5382;42.136;24.796;2023-05-01T00:34:45;4.75;;;4.20;;
10667;SDS011;5382;42.136;24.796;2023-05-01T00:37:12;5.28;;;4.07;;
10667;SDS011;5382;42.136;24.796;2023-05-01T00:39:39;3.90;;;3.50;;
10667;SDS011;5382;42.136;24.796;2023-05-01T00:42:06;4.45;;;3.70;;
10667;SDS011;5382;42.136;24.796;2023-05-01T00:44:34;4.30;;;3.85;;
10667;SDS011;5382;42.136;24.796;2023-05-01T00:47:01;4.80;;;4.28;;
10667;SDS011;5382;42.136;24.796;2023-05-01T00:49:29;4.22;;;3.83;;
10667;SDS011;5382;42.136;24.796;2023-05-01T00:51:56;4.40;;;4.00;;
10667;SDS011;5382;42.136;24.796;2023-05-01T00:54:23;5.72;;;4.05;;
10667;SDS011;5382;42.136;24.796;2023-05-01T00:56:51;5.57;;;3.95;;
10667;SDS011;5382;42.136;24.796;2023-05-01T00:59:18;4.72;;;4.25;;
10667;SDS011;5382;42.136;24.796;2023-05-01T01:01:48;5.43;;;4.20;;
10667;SDS011;5382;42.136;24.796;2023-05-01T01:04:16;5.53;;;4.07;;
10667;SDS011;5382;42.136;24.796;2023-05-01T01:06:45;5.03;;;4.53;;
10667;SDS011;5382;42.136;24.796;2023-05-01T01:09:20;4.88;;;4.35;;
10667;SDS011;5382;42.136;24.796;2023-05-01T01:11:56;5.20;;;3.80;;
10667;SDS011;5382;42.136;24.796;2023-05-01T01:14:32;5.30;;;4.20;;
10667;SDS011;5382;42.136;24.796;2023-05-01T01:17:03;5.68;;;3.95;;
10667;SDS011;5382;42.136;24.796;2023-05-01T01:22:30;4.95;;;3.85;;
10667;SDS011;5382;42.136;24.796;2023-05-01T01:25:07;4.65;;;3.85;;
10667;SDS011;5382;42.136;24.796;2023-05-01T01:28:03;4.63;;;3.85;;
10667;SDS011;5382;42.136;24.796;2023-05-01T01:30:55;6.13;;;5.20;;
10667;SDS011;5382;42.136;24.796;2023-05-01T01:33:48;4.82;;;4.30;;
10667;SDS011;5382;42.136;24.796;2023-05-01T01:36:21;5.47;;;4.93;;
10667;SDS011;5382;42.136;24.796;2023-05-01T01:39:00;4.82;;;4.32;;
10667;SDS011;5382;42.136;24.796;2023-05-01T01:41:32;4.25;;;3.83;;
10667;SDS011;5382;42.136;24.796;2023-05-01T01:44:02;5.30;;;4.80;;
10667;SDS011;5382;42.136;24.796;2023-05-01T01:46:32;6.70;;;5.35;;
10667;SDS011;5382;42.136;24.796;2023-05-01T01:49:05;6.38;;;5.05;;
10667;SDS011;5382;42.136;24.796;2023-05-01T01:51:37;5.15;;;3.92;;
10667;SDS011;5382;42.136;24.796;2023-05-01T01:54:06;5.88;;;5.28;;
10667;SDS011;5382;42.136;24.796;2023-05-01T01:56:36;6.72;;;5.70;;
10667;SDS011;5382;42.136;24.796;2023-05-01T01:59:06;7.50;;;5.93;;
10667;SDS011;5382;42.136;24.796;2023-05-01T02:01:35;6.78;;;4.80;;
10667;SDS011;5382;42.136;24.796;2023-05-01T02:04:06;4.80;;;4.30;;
10667;SDS011;5382;42.136;24.796;2023-05-01T02:06:33;5.40;;;4.85;;
10667;SDS011;5382;42.136;24.796;2023-05-01T02:09:03;5.30;;;4.80;;
10667;SDS011;5382;42.136;24.796;2023-05-01T02:11:31;7.03;;;5.50;;
10667;SDS011;5382;42.136;24.796;2023-05-01T02:14:00;5.68;;;4.97;;
10667;SDS011;5382;42.136;24.796;2023-05-01T02:16:29;6.70;;;6.00;;
10667;SDS011;5382;42.136;24.796;2023-05-01T02:18:58;6.45;;;5.80;;
10667;SDS011;5382;42.136;24.796;2023-05-01T02:21:28;6.93;;;4.70;;
10667;SDS011;5382;42.136;24.796;2023-05-01T02:23:56;5.85;;;4.70;;
10667;SDS011;5382;42.136;24.796;2023-05-01T02:26:26;6.00;;;4.88;;
10667;SDS011;5382;42.136;24.796;2023-05-01T02:28:54;5.50;;;5.00;;
10667;SDS011;5382;42.136;24.796;2023-05-01T02:31:22;5.78;;;5.30;;
10667;SDS011;5382;42.136;24.796;2023-05-01T02:33:49;7.30;;;5.10;;
10667;SDS011;5382;42.136;24.796;2023-05-01T02:36:16;5.97;;;5.35;;
10667;SDS011;5382;42.136;24.796;2023-05-01T02:38:44;6.70;;;5.00;;
10667;SDS011;5382;42.136;24.796;2023-05-01T02:41:15;7.47;;;6.65;;
10667;SDS011;5382;42.136;24.796;2023-05-01T02:43:42;11.65;;;5.80;;
10667;SDS011;5382;42.136;24.796;2023-05-01T02:46:11;6.80;;;6.10;;
10667;SDS011;5382;42.136;24.796;2023-05-01T02:48:39;7.22;;;5.30;;
10667;SDS011;5382;42.136;24.796;2023-05-01T02:51:08;5.93;;;4.95;;
10667;SDS011;5382;42.136;24.796;2023-05-01T02:53:35;6.60;;;5.45;;
10667;SDS011;5382;42.136;24.796;2023-05-01T02:56:05;6.50;;;5.03;;
10667;SDS011;5382;42.136;24.796;2023-05-01T02:58:33;6.32;;;5.70;;
10667;SDS011;5382;42.136;24.796;2023-05-01T03:01:00;6.38;;;5.00;;
10667;SDS011;5382;42.136;24.796;2023-05-01T03:03:27;6.55;;;5.80;;
10667;SDS011;5382;42.136;24.796;2023-05-01T03:05:54;6.45;;;5.85;;
10667;SDS011;5382;42.136;24.796;2023-05-01T03:08:21;7.15;;;5.82;;
10667;SDS011;5382;42.136;24.796;2023-05-01T03:10:48;7.10;;;5.72;;
10667;SDS011;5382;42.136;24.796;2023-05-01T03:13:16;7.55;;;6.75;;
10667;SDS011;5382;42.136;24.796;2023-05-01T03:15:43;7.35;;;5.78;;
10667;SDS011;5382;42.136;24.796;2023-05-01T03:18:10;7.50;;;5.88;;
10667;SDS011;5382;42.136;24.796;2023-05-01T03:20:37;6.28;;;5.63;;
10667;SDS011;5382;42.136;24.796;2023-05-01T03:23:04;9.82;;;6.18;;
10667;SDS011;5382;42.136;24.796;2023-05-01T03:25:31;9.73;;;5.95;;
10667;SDS011;5382;42.136;24.796;2023-05-01T03:27:58;8.85;;;6.18;;
10667;SDS011;5382;42.136;24.796;2023-05-01T03:30:26;10.65;;;6.15;;
10667;SDS011;5382;42.136;24.796;2023-05-01T03:32:53;6.60;;;5.18;;
10667;SDS011;5382;42.136;24.796;2023-05-01T03:35:20;6.00;;;5.30;;
10667;SDS011;5382;42.136;24.796;2023-05-01T03:37:47;19.48;;;6.97;;
10667;SDS011;5382;42.136;24.796;2023-05-01T03:40:14;6.30;;;5.53;;
10667;SDS011;5382;42.136;24.796;2023-05-01T03:42:40;6.75;;;5.85;;
10667;SDS011;5382;42.136;24.796;2023-05-01T03:45:08;8.65;;;5.57;;
10667;SDS011;5382;42.136;24.796;2023-05-01T03:47:36;11.85;;;7.43;;
10667;SDS011;5382;42.136;24.796;2023-05-01T03:50:03;8.43;;;7.10;;
10667;SDS011;5382;42.136;24.796;2023-05-01T03:52:31;8.18;;;6.85;;
10667;SDS011;5382;42.136;24.796;2023-05-01T03:54:58;9.85;;;6.55;;
10667;SDS011;5382;42.136;24.796;2023-05-01T03:57:25;13.05;;;8.55;;
10667;SDS011;5382;42.136;24.796;2023-05-01T03:59:52;12.15;;;7.68;;
10667;SDS011;5382;42.136;24.796;2023-05-01T04:02:19;14.77;;;7.65;;
10667;SDS011;5382;42.136;24.796;2023-05-01T04:04:47;10.30;;;6.15;;
10667;SDS011;5382;42.136;24.796;2023-05-01T04:07:13;9.35;;;7.55;;
10667;SDS011;5382;42.136;24.796;2023-05-01T04:09:40;8.60;;;7.60;;
10667;SDS011;5382;42.136;24.796;2023-05-01T04:12:07;10.15;;;7.45;;
10667;SDS011;5382;42.136;24.796;2023-05-01T04:14:34;10.60;;;7.82;;
10667;SDS011;5382;42.136;24.796;2023-05-01T04:17:01;7.05;;;5.70;;
10667;SDS011;5382;42.136;24.796;2023-05-01T04:19:28;8.55;;;6.55;;
10667;SDS011;5382;42.136;24.796;2023-05-01T04:21:56;11.40;;;7.13;;
10667;SDS011;5382;42.136;24.796;2023-05-01T04:24:23;7.93;;;7.15;;
10667;SDS011;5382;42.136;24.796;2023-05-01T04:26:49;11.30;;;6.57;;
10667;SDS011;5382;42.136;24.796;2023-05-01T04:29:16;8.07;;;6.00;;
10667;SDS011;5382;42.136;24.796;2023-05-01T04:31:43;10.65;;;7.60;;
10667;SDS011;5382;42.136;24.796;2023-05-01T04:34:10;9.23;;;7.68;;
10667;SDS011;5382;42.136;24.796;2023-05-01T04:36:36;10.50;;;7.97;;
10667;SDS011;5382;42.136;24.796;2023-05-01T04:39:05;8.43;;;7.65;;
10667;SDS011;5382;42.136;24.796;2023-05-01T04:41:31;10.35;;;6.82;;
10667;SDS011;5382;42.136;24.796;2023-05-01T04:43:58;9.45;;;8.45;;
10667;SDS011;5382;42.136;24.796;2023-05-01T04:46:25;10.35;;;8.00;;
10667;SDS011;5382;42.136;24.796;2023-05-01T04:48:52;11.05;;;6.97;;
10667;SDS011;5382;42.136;24.796;2023-05-01T04:51:18;9.32;;;7.13;;
10667;SDS011;5382;42.136;24.796;2023-05-01T04:53:45;13.85;;;7.95;;
10667;SDS011;5382;42.136;24.796;2023-05-01T04:56:13;9.55;;;7.70;;
10667;SDS011;5382;42.136;24.796;2023-05-01T04:58:40;9.70;;;7.60;;
10667;SDS011;5382;42.136;24.796;2023-05-01T05:01:07;8.23;;;7.43;;
10667;SDS011;5382;42.136;24.796;2023-05-01T05:03:34;8.15;;;6.40;;
10667;SDS011;5382;42.136;24.796;2023-05-01T05:06:01;7.78;;;7.00;;
10667;SDS011;5382;42.136;24.796;2023-05-01T05:08:28;7.80;;;7.00;;
10667;SDS011;5382;42.136;24.796;2023-05-01T05:10:56;7.00;;;5.55;;
10667;SDS011;5382;42.136;24.796;2023-05-01T05:13:25;11.77;;;7.35;;
10667;SDS011;5382;42.136;24.796;2023-05-01T05:15:52;11.55;;;6.75;;
10667;SDS011;5382;42.136;24.796;2023-05-01T05:18:19;9.15;;;7.55;;
10667;SDS011;5382;42.136;24.796;2023-05-01T05:20:45;8.75;;;7.18;;
10667;SDS011;5382;42.136;24.796;2023-05-01T05:23:12;9.85;;;5.82;;
10667;SDS011;5382;42.136;24.796;2023-05-01T05:25:39;8.13;;;7.32;;
10667;SDS011;5382;42.136;24.796;2023-05-01T05:28:06;11.80;;;7.07;;
10667;SDS011;5382;42.136;24.796;2023-05-01T05:30:34;14.50;;;7.43;;
10667;SDS011;5382;42.136;24.796;2023-05-01T05:33:01;9.18;;;6.90;;
10667;SDS011;5382;42.136;24.796;2023-05-01T05:35:29;10.82;;;7.00;;
10667;SDS011;5382;42.136;24.796;2023-05-01T05:37:56;10.43;;;6.78;;
10667;SDS011;5382;42.136;24.796;2023-05-01T05:40:22;9.90;;;6.57;;
10667;SDS011;5382;42.136;24.796;2023-05-01T05:42:49;9.25;;;6.35;;
10667;SDS011;5382;42.136;24.796;2023-05-01T05:45:16;7.00;;;6.28;;
10667;SDS011;5382;42.136;24.796;2023-05-01T05:47:44;9.77;;;6.22;;
10667;SDS011;5382;42.136;24.796;2023-05-01T05:50:11;9.40;;;6.68;;
10667;SDS011;5382;42.136;24.796;2023-05-01T05:52:38;9.43;;;6.40;;
10667;SDS011;5382;42.136;24.796;2023-05-01T05:55:05;7.10;;;5.93;;
10667;SDS011;5382;42.136;24.796;2023-05-01T05:57:32;8.20;;;5.95;;
10667;SDS011;5382;42.136;24.796;2023-05-01T06:00:01;8.43;;;6.90;;
10667;SDS011;5382;42.136;24.796;2023-05-01T06:02:29;8.52;;;6.43;;
10667;SDS011;5382;42.136;24.796;2023-05-01T06:04:57;9.63;;;6.03;;
10667;SDS011;5382;42.136;24.796;2023-05-01T06:07:24;5.75;;;5.07;;
10667;SDS011;5382;42.136;24.796;2023-05-01T06:09:52;6.07;;;4.97;;
10667;SDS011;5382;42.136;24.796;2023-05-01T06:12:19;5.15;;;4.28;;
10667;SDS011;5382;42.136;24.796;2023-05-01T06:14:45;6.15;;;4.10;;
10667;SDS011;5382;42.136;24.796;2023-05-01T06:17:12;4.97;;;3.47;;
10667;SDS011;5382;42.136;24.796;2023-05-01T06:19:39;5.22;;;3.55;;
10667;SDS011;5382;42.136;24.796;2023-05-01T06:22:07;5.93;;;3.22;;
10667;SDS011;5382;42.136;24.796;2023-05-01T06:24:34;3.85;;;3.47;;
10667;SDS011;5382;42.136;24.796;2023-05-01T06:27:03;3.55;;;3.25;;
10667;SDS011;5382;42.136;24.796;2023-05-01T06:29:30;4.63;;;2.97;;
10667;SDS011;5382;42.136;24.796;2023-05-01T06:31:57;4.15;;;3.42;;
10667;SDS011;5382;42.136;24.796;2023-05-01T06:34:24;5.07;;;3.72;;
10667;SDS011;5382;42.136;24.796;2023-05-01T06:36:51;4.78;;;2.92;;
10667;SDS011;5382;42.136;24.796;2023-05-01T06:39:19;10.00;;;4.35;;
10667;SDS011;5382;42.136;24.796;2023-05-01T06:41:45;3.83;;;3.50;;
10667;SDS011;5382;42.136;24.796;2023-05-01T06:44:12;5.20;;;3.90;;
10667;SDS011;5382;42.136;24.796;2023-05-01T06:46:39;4.63;;;3.70;;
10667;SDS011;5382;42.136;24.796;2023-05-01T06:49:06;5.15;;;3.50;;
10667;SDS011;5382;42.136;24.796;2023-05-01T06:51:33;4.28;;;3.88;;
10667;SDS011;5382;42.136;24.796;2023-05-01T06:54:00;4.20;;;3.47;;
10667;SDS011;5382;42.136;24.796;2023-05-01T06:56:28;6.30;;;3.35;;
10667;SDS011;5382;42.136;24.796;2023-05-01T06:58:56;5.88;;;3.63;;
10667;SDS011;5382;42.136;24.796;2023-05-01T07:01:23;5.35;;;3.75;;
10667;SDS011;5382;42.136;24.796;2023-05-01T07:03:49;5.13;;;3.22;;
10667;SDS011;5382;42.136;24.796;2023-05-01T07:06:16;4.38;;;2.63;;
10667;SDS011;5382;42.136;24.796;2023-05-01T07:08:43;3.90;;;3.10;;
10667;SDS011;5382;42.136;24.796;2023-05-01T07:11:10;5.00;;;3.00;;
10667;SDS011;5382;42.136;24.796;2023-05-01T07:13:38;4.32;;;3.28;;
10667;SDS011;5382;42.136;24.796;2023-05-01T07:16:05;3.70;;;3.20;;
10667;SDS011;5382;42.136;24.796;2023-05-01T07:18:32;4.00;;;3.28;;
10667;SDS011;5382;42.136;24.796;2023-05-01T07:20:59;3.55;;;3.22;;
10667;SDS011;5382;42.136;24.796;2023-05-01T07:23:26;3.15;;;2.70;;
10667;SDS011;5382;42.136;24.796;2023-05-01T07:25:53;3.25;;;2.92;;
10667;SDS011;5382;42.136;24.796;2023-05-01T07:28:21;2.90;;;2.70;;
10667;SDS011;5382;42.136;24.796;2023-05-01T07:30:49;4.28;;;3.42;;
10667;SDS011;5382;42.136;24.796;2023-05-01T07:33:16;3.90;;;3.20;;
10667;SDS011;5382;42.136;24.796;2023-05-01T07:35:42;3.80;;;3.40;;
10667;SDS011;5382;42.136;24.796;2023-05-01T07:38:09;3.90;;;3.05;;
10667;SDS011;5382;42.136;24.796;2023-05-01T07:40:37;4.63;;;3.60;;
10667;SDS011;5382;42.136;24.796;2023-05-01T07:43:04;6.05;;;3.47;;
10667;SDS011;5382;42.136;24.796;2023-05-01T07:45:31;6.10;;;3.63;;
10667;SDS011;5382;42.136;24.796;2023-05-01T07:48:00;5.00;;;3.47;;
10667;SDS011;5382;42.136;24.796;2023-05-01T07:50:27;3.45;;;3.10;;
10667;SDS011;5382;42.136;24.796;2023-05-01T07:52:54;7.15;;;3.53;;
10667;SDS011;5382;42.136;24.796;2023-05-01T07:55:20;5.55;;;3.35;;
10667;SDS011;5382;42.136;24.796;2023-05-01T07:57:47;4.95;;;3.85;;
10667;SDS011;5382;42.136;24.796;2023-05-01T08:00:15;4.25;;;3.30;;
10667;SDS011;5382;42.136;24.796;2023-05-01T08:02:42;5.35;;;3.92;;
10667;SDS011;5382;42.136;24.796;2023-05-01T08:05:10;5.57;;;3.53;;
10667;SDS011;5382;42.136;24.796;2023-05-01T08:07:37;5.75;;;2.97;;
10667;SDS011;5382;42.136;24.796;2023-05-01T08:10:04;3.30;;;3.00;;
10667;SDS011;5382;42.136;24.796;2023-05-01T08:12:31;8.80;;;3.53;;
10667;SDS011;5382;42.136;24.796;2023-05-01T08:14:58;5.18;;;2.83;;
10667;SDS011;5382;42.136;24.796;2023-05-01T08:17:25;5.18;;;3.08;;
10667;SDS011;5382;42.136;24.796;2023-05-01T08:19:52;3.85;;;2.70;;
10667;SDS011;5382;42.136;24.796;2023-05-01T08:22:22;2.90;;;2.30;;
10667;SDS011;5382;42.136;24.796;2023-05-01T08:24:49;2.70;;;2.25;;
10667;SDS011;5382;42.136;24.796;2023-05-01T08:27:16;3.45;;;3.10;;
10667;SDS011;5382;42.136;24.796;2023-05-01T08:29:43;4.72;;;2.63;;
10667;SDS011;5382;42.136;24.796;2023-05-01T08:32:09;2.47;;;2.22;;
10667;SDS011;5382;42.136;24.796;2023-05-01T08:34:36;3.25;;;2.63;;
10667;SDS011;5382;42.136;24.796;2023-05-01T08:37:03;3.08;;;2.78;;
10667;SDS011;5382;42.136;24.796;2023-05-01T08:39:31;3.33;;;2.53;;
10667;SDS011;5382;42.136;24.796;2023-05-01T08:41:59;3.42;;;2.38;;
10667;SDS011;5382;42.136;24.796;2023-05-01T08:44:26;4.35;;;2.80;;
10667;SDS011;5382;42.136;24.796;2023-05-01T08:46:58;3.22;;;2.70;;
10667;SDS011;5382;42.136;24.796;2023-05-01T08:49:33;3.78;;;2.67;;
10667;SDS011;5382;42.136;24.796;2023-05-01T08:52:02;3.65;;;2.60;;
10667;SDS011;5382;42.136;24.796;2023-05-01T08:54:34;2.70;;;2.22;;
10667;SDS011;5382;42.136;24.796;2023-05-01T08:57:03;2.88;;;2.30;;
10667;SDS011;5382;42.136;24.796;2023-05-01T08:59:32;2.45;;;1.92;;
10667;SDS011;5382;42.136;24.796;2023-05-01T09:02:00;2.58;;;2.13;;
10667;SDS011;5382;42.136;24.796;2023-05-01T09:04:30;3.47;;;2.17;;
10667;SDS011;5382;42.136;24.796;2023-05-01T09:06:58;4.18;;;2.20;;
10667;SDS011;5382;42.136;24.796;2023-05-01T09:09:26;2.28;;;1.85;;
10667;SDS011;5382;42.136;24.796;2023-05-01T09:11:55;2.78;;;2.33;;
10667;SDS011;5382;42.136;24.796;2023-05-01T09:14:25;2.92;;;1.77;;
10667;SDS011;5382;42.136;24.796;2023-05-01T09:16:52;1.95;;;1.73;;
10667;SDS011;5382;42.136;24.796;2023-05-01T09:19:19;2.58;;;2.38;;
10667;SDS011;5382;42.136;24.796;2023-05-01T09:21:46;3.30;;;2.30;;
10667;SDS011;5382;42.136;24.796;2023-05-01T09:24:13;2.53;;;2.30;;
10667;SDS011;5382;42.136;24.796;2023-05-01T09:26:40;3.53;;;2.83;;
10667;SDS011;5382;42.136;24.796;2023-05-01T09:29:08;2.35;;;2.15;;
10667;SDS011;5382;42.136;24.796;2023-05-01T09:31:35;2.15;;;1.98;;
10667;SDS011;5382;42.136;24.796;2023-05-01T09:34:02;2.53;;;2.33;;
10667;SDS011;5382;42.136;24.796;2023-05-01T09:36:31;4.22;;;2.22;;
10667;SDS011;5382;42.136;24.796;2023-05-01T09:38:59;2.40;;;2.20;;
10667;SDS011;5382;42.136;24.796;2023-05-01T09:41:27;2.90;;;2.33;;
10667;SDS011;5382;42.136;24.796;2023-05-01T09:43:56;4.75;;;2.83;;
10667;SDS011;5382;42.136;24.796;2023-05-01T09:46:25;3.90;;;2.30;;
10667;SDS011;5382;42.136;24.796;2023-05-01T09:48:53;2.40;;;2.20;;
10667;SDS011;5382;42.136;24.796;2023-05-01T09:51:21;2.83;;;2.13;;
10667;SDS011;5382;42.136;24.796;2023-05-01T09:53:51;2.63;;;2.00;;
10667;SDS011;5382;42.136;24.796;2023-05-01T09:56:18;3.28;;;2.00;;
10667;SDS011;5382;42.136;24.796;2023-05-01T09:58:45;2.95;;;1.98;;
10667;SDS011;5382;42.136;24.796;2023-05-01T10:01:13;3.80;;;1.98;;
10667;SDS011;5382;42.136;24.796;2023-05-01T10:03:43;2.55;;;1.77;;
10667;SDS011;5382;42.136;24.796;2023-05-01T10:06:10;2.83;;;2.05;;
10667;SDS011;5382;42.136;24.796;2023-05-01T10:08:44;3.10;;;1.90;;
10667;SDS011;5382;42.136;24.796;2023-05-01T10:11:12;3.50;;;2.00;;
10667;SDS011;5382;42.136;24.796;2023-05-01T10:13:38;3.72;;;1.92;;
10667;SDS011;5382;42.136;24.796;2023-05-01T10:16:06;2.75;;;2.08;;
10667;SDS011;5382;42.136;24.796;2023-05-01T10:18:34;3.35;;;1.90;;
10667;SDS011;5382;42.136;24.796;2023-05-01T10:21:03;4.13;;;1.77;;
10667;SDS011;5382;42.136;24.796;2023-05-01T10:23:30;3.03;;;2.38;;
10667;SDS011;5382;42.136;24.796;2023-05-01T10:26:00;2.97;;;1.95;;
10667;SDS011;5382;42.136;24.796;2023-05-01T10:28:29;1.95;;;1.60;;
10667;SDS011;5382;42.136;24.796;2023-05-01T10:30:57;2.42;;;1.80;;
10667;SDS011;5382;42.136;24.796;2023-05-01T10:33:24;3.13;;;1.67;;
10667;SDS011;5382;42.136;24.796;2023-05-01T10:35:53;3.17;;;1.70;;
10667;SDS011;5382;42.136;24.796;2023-05-01T10:38:24;5.75;;;1.92;;
10667;SDS011;5382;42.136;24.796;2023-05-01T10:40:55;3.50;;;2.35;;
10667;SDS011;5382;42.136;24.796;2023-05-01T10:43:22;3.10;;;2.08;;
10667;SDS011;5382;42.136;24.796;2023-05-01T10:45:53;3.60;;;2.10;;
10667;SDS011;5382;42.136;24.796;2023-05-01T10:51:21;2.80;;;2.13;;
10667;SDS011;5382;42.136;24.796;2023-05-01T10:56:50;4.43;;;2.10;;
10667;SDS011;5382;42.136;24.796;2023-05-01T10:59:18;3.53;;;2.00;;
10667;SDS011;5382;42.136;24.796;2023-05-01T11:01:46;2.20;;;1.95;;
10667;SDS011;5382;42.136;24.796;2023-05-01T11:07:20;2.13;;;1.92;;
10667;SDS011;5382;42.136;24.796;2023-05-01T11:09:50;3.72;;;1.98;;
10667;SDS011;5382;42.136;24.796;2023-05-01T11:15:28;2.67;;;1.42;;
10667;SDS011;5382;42.136;24.796;2023-05-01T11:17:56;2.65;;;2.05;;
10667;SDS011;5382;42.136;24.796;2023-05-01T11:23:21;2.35;;;1.80;;
10667;SDS011;5382;42.136;24.796;2023-05-01T11:25:57;2.60;;;1.73;;
10667;SDS011;5382;42.136;24.796;2023-05-01T11:28:27;5.28;;;2.08;;
10667;SDS011;5382;42.136;24.796;2023-05-01T11:30:56;4.20;;;1.90;;
10667;SDS011;5382;42.136;24.796;2023-05-01T11:33:24;2.70;;;2.38;;
10667;SDS011;5382;42.136;24.796;2023-05-01T11:36:01;6.05;;;2.30;;
10667;SDS011;5382;42.136;24.796;2023-05-01T11:38:29;8.65;;;2.90;;
10667;SDS011;5382;42.136;24.796;2023-05-01T11:41:03;2.33;;;2.03;;
10667;SDS011;5382;42.136;24.796;2023-05-01T11:43:29;4.57;;;2.30;;
10667;SDS011;5382;42.136;24.796;2023-05-01T11:45:56;5.30;;;1.95;;
10667;SDS011;5382;42.136;24.796;2023-05-01T11:48:28;5.43;;;2.45;;
10667;SDS011;5382;42.136;24.796;2023-05-01T11:50:55;3.35;;;2.30;;
10667;SDS011;5382;42.136;24.796;2023-05-01T11:53:22;2.50;;;2.30;;
10667;SDS011;5382;42.136;24.796;2023-05-01T11:55:48;2.45;;;2.05;;
10667;SDS011;5382;42.136;24.796;2023-05-01T11:58:18;3.28;;;1.88;;
10667;SDS011;5382;42.136;24.796;2023-05-01T12:00:57;5.75;;;2.45;;
10667;SDS011;5382;42.136;24.796;2023-05-01T12:03:24;2.90;;;2.17;;
10667;SDS011;5382;42.136;24.796;2023-05-01T12:05:50;2.25;;;1.90;;
10667;SDS011;5382;42.136;24.796;2023-05-01T12:08:18;3.88;;;2.35;;
10667;SDS011;5382;42.136;24.796;2023-05-01T12:10:48;2.63;;;1.80;;
10667;SDS011;5382;42.136;24.796;2023-05-01T12:13:17;3.05;;;2.10;;
10667;SDS011;5382;42.136;24.796;2023-05-01T12:15:45;4.18;;;1.98;;
10667;SDS011;5382;42.136;24.796;2023-05-01T12:18:14;3.35;;;2.10;;
10667;SDS011;5382;42.136;24.796;2023-05-01T12:20:43;3.10;;;2.00;;
10667;SDS011;5382;42.136;24.796;2023-05-01T12:23:12;6.40;;;2.10;;
10667;SDS011;5382;42.136;24.796;2023-05-01T12:25:40;3.63;;;2.42;;
10667;SDS011;5382;42.136;24.796;2023-05-01T12:28:08;2.63;;;2.10;;
10667;SDS011;5382;42.136;24.796;2023-05-01T12:30:38;3.80;;;2.30;;
10667;SDS011;5382;42.136;24.796;2023-05-01T12:33:09;4.63;;;2.10;;
10667;SDS011;5382;42.136;24.796;2023-05-01T12:35:37;2.78;;;2.22;;
10667;SDS011;5382;42.136;24.796;2023-05-01T12:38:14;3.17;;;2.05;;
10667;SDS011;5382;42.136;24.796;2023-05-01T12:40:52;2.30;;;2.10;;
10667;SDS011;5382;42.136;24.796;2023-05-01T12:43:21;2.75;;;2.13;;
10667;SDS011;5382;42.136;24.796;2023-05-01T12:45:56;2.83;;;1.92;;
10667;SDS011;5382;42.136;24.796;2023-05-01T12:48:24;3.97;;;2.17;;
10667;SDS011;5382;42.136;24.796;2023-05-01T12:50:51;3.13;;;1.98;;
10667;SDS011;5382;42.136;24.796;2023-05-01T12:53:19;3.15;;;1.90;;
10667;SDS011;5382;42.136;24.796;2023-05-01T12:55:48;3.45;;;2.05;;
10667;SDS011;5382;42.136;24.796;2023-05-01T12:58:15;2.72;;;2.08;;
10667;SDS011;5382;42.136;24.796;2023-05-01T13:00:46;3.13;;;2.10;;
10667;SDS011;5382;42.136;24.796;2023-05-01T13:03:16;5.20;;;2.15;;
10667;SDS011;5382;42.136;24.796;2023-05-01T13:05:51;6.22;;;1.90;;
10667;SDS011;5382;42.136;24.796;2023-05-01T13:08:27;2.63;;;1.90;;
10667;SDS011;5382;42.136;24.796;2023-05-01T13:10:55;3.13;;;2.10;;
10667;SDS011;5382;42.136;24.796;2023-05-01T13:13:27;3.03;;;1.80;;
10667;SDS011;5382;42.136;24.796;2023-05-01T13:16:02;4.82;;;2.17;;
10667;SDS011;5382;42.136;24.796;2023-05-01T13:18:32;2.13;;;1.92;;
10667;SDS011;5382;42.136;24.796;2023-05-01T13:21:09;3.50;;;1.92;;
10667;SDS011;5382;42.136;24.796;2023-05-01T13:23:38;2.63;;;1.63;;
10667;SDS011;5382;42.136;24.796;2023-05-01T13:26:05;1.98;;;1.65;;
10667;SDS011;5382;42.136;24.796;2023-05-01T13:28:33;4.18;;;1.90;;
10667;SDS011;5382;42.136;24.796;2023-05-01T13:31:03;3.67;;;1.80;;
10667;SDS011;5382;42.136;24.796;2023-05-01T13:33:38;4.55;;;2.30;;
10667;SDS011;5382;42.136;24.796;2023-05-01T13:36:07;1.95;;;1.60;;
10667;SDS011;5382;42.136;24.796;2023-05-01T13:38:39;2.72;;;1.70;;
10667;SDS011;5382;42.136;24.796;2023-05-01T13:41:12;3.85;;;1.75;;
10667;SDS011;5382;42.136;24.796;2023-05-01T13:43:39;2.65;;;1.63;;
10667;SDS011;5382;42.136;24.796;2023-05-01T13:46:07;2.45;;;1.70;;
10667;SDS011;5382;42.136;24.796;2023-05-01T13:48:34;2.67;;;1.80;;
10667;SDS011;5382;42.136;24.796;2023-05-01T13:51:02;2.50;;;1.70;;
10667;SDS011;5382;42.136;24.796;2023-05-01T13:53:30;2.67;;;1.52;;
10667;SDS011;5382;42.136;24.796;2023-05-01T13:55:57;2.47;;;1.30;;
10667;SDS011;5382;42.136;24.796;2023-05-01T13:58:23;1.65;;;1.55;;
10667;SDS011;5382;42.136;24.796;2023-05-01T14:00:50;3.53;;;2.20;;
10667;SDS011;5382;42.136;24.796;2023-05-01T14:03:17;2.40;;;1.63;;
10667;SDS011;5382;42.136;24.796;2023-05-01T14:05:44;2.55;;;1.70;;
10667;SDS011;5382;42.136;24.796;2023-05-01T14:08:14;3.28;;;1.88;;
10667;SDS011;5382;42.136;24.796;2023-05-01T14:10:41;2.40;;;1.38;;
10667;SDS011;5382;42.136;24.796;2023-05-01T14:13:08;4.30;;;1.40;;
10667;SDS011;5382;42.136;24.796;2023-05-01T14:15:35;2.70;;;1.30;;
10667;SDS011;5382;42.136;24.796;2023-05-01T14:18:03;2.47;;;1.90;;
10667;SDS011;5382;42.136;24.796;2023-05-01T14:20:30;3.33;;;1.40;;
10667;SDS011;5382;42.136;24.796;2023-05-01T14:22:57;2.80;;;1.60;;
10667;SDS011;5382;42.136;24.796;2023-05-01T14:25:26;2.60;;;1.50;;
10667;SDS011;5382;42.136;24.796;2023-05-01T14:27:55;2.58;;;1.55;;
10667;SDS011;5382;42.136;24.796;2023-05-01T14:30:25;2.40;;;1.85;;
10667;SDS011;5382;42.136;24.796;2023-05-01T14:32:54;2.17;;;1.80;;
10667;SDS011;5382;42.136;24.796;2023-05-01T14:35:22;2.42;;;1.77;;
10667;SDS011;5382;42.136;24.796;2023-05-01T14:37:49;3.60;;;2.42;;
10667;SDS011;5382;42.136;24.796;2023-05-01T14:40:17;4.82;;;1.90;;
10667;SDS011;5382;42.136;24.796;2023-05-01T14:42:46;2.20;;;1.73;;
10667;SDS011;5382;42.136;24.796;2023-05-01T14:45:14;2.13;;;1.70;;
10667;SDS011;5382;42.136;24.796;2023-05-01T14:47:43;2.88;;;1.85;;
10667;SDS011;5382;42.136;24.796;2023-05-01T14:50:12;1.95;;;1.50;;
10667;SDS011;5382;42.136;24.796;2023-05-01T14:52:44;3.38;;;1.75;;
10667;SDS011;5382;42.136;24.796;2023-05-01T14:55:12;2.38;;;1.33;;
10667;SDS011;5382;42.136;24.796;2023-05-01T14:57:43;1.55;;;1.42;;
10667;SDS011;5382;42.136;24.796;2023-05-01T15:00:13;2.90;;;1.42;;
10667;SDS011;5382;42.136;24.796;2023-05-01T15:02:40;3.10;;;1.80;;
10667;SDS011;5382;42.136;24.796;2023-05-01T15:05:07;4.95;;;1.92;;
10667;SDS011;5382;42.136;24.796;2023-05-01T15:07:34;1.95;;;1.70;;
10667;SDS011;5382;42.136;24.796;2023-05-01T15:10:01;2.50;;;1.73;;
10667;SDS011;5382;42.136;24.796;2023-05-01T15:12:28;2.63;;;1.80;;